createdAt,value
2022-09-21T00:02:45.607Z,0.05
2022-09-21T00:05:45.640Z,0.05
2022-09-21T00:08:45.624Z,0.15
2022-09-21T00:11:45.625Z,0
2022-09-21T00:14:45.617Z,0
2022-09-21T00:17:45.637Z,0
2022-09-21T00:20:45.652Z,0
2022-09-21T00:23:45.639Z,0
2022-09-21T00:26:45.654Z,0
2022-09-21T00:29:45.645Z,0
2022-09-21T00:32:45.720Z,0.15
2022-09-21T00:35:45.606Z,0.15
2022-09-21T00:38:45.633Z,0
2022-09-21T00:41:45.647Z,0
2022-09-21T00:44:45.731Z,0
2022-09-21T00:47:45.635Z,0
2022-09-21T00:50:45.744Z,0
2022-09-21T00:53:45.682Z,0
2022-09-21T00:56:45.667Z,0
2022-09-21T00:59:45.636Z,0
2022-09-21T01:02:45.685Z,0
2022-09-21T01:05:45.661Z,0
2022-09-21T01:08:45.679Z,0
2022-09-21T01:11:45.654Z,0.2
2022-09-21T01:14:45.665Z,0.25
2022-09-21T01:17:45.701Z,0.15
2022-09-21T01:20:45.691Z,0.2
2022-09-21T01:23:45.704Z,0.15
2022-09-21T01:26:45.712Z,0
2022-09-21T01:29:45.745Z,0.05
2022-09-21T01:32:45.683Z,0
2022-09-21T01:35:45.734Z,0
2022-09-21T01:38:45.687Z,0
2022-09-21T01:41:45.821Z,0
2022-09-21T01:44:45.690Z,0
2022-09-21T01:47:45.760Z,0
2022-09-21T01:50:45.781Z,0
2022-09-21T01:53:45.751Z,0
2022-09-21T01:56:45.716Z,0.2
2022-09-21T01:59:45.754Z,0.2
2022-09-21T02:02:45.687Z,0.1
2022-09-21T02:05:45.809Z,0.05
2022-09-21T02:08:45.724Z,0.15
2022-09-21T02:11:45.753Z,0.25
2022-09-21T02:14:45.711Z,0.25
2022-09-21T02:17:45.710Z,0
2022-09-21T02:20:45.704Z,0
2022-09-21T02:23:45.786Z,0
2022-09-21T02:26:45.763Z,0
2022-09-21T02:29:45.720Z,0
2022-09-21T02:32:45.705Z,0
2022-09-21T02:35:45.710Z,0.05
2022-09-21T02:38:45.740Z,0.3
2022-09-21T02:41:45.762Z,0.1
2022-09-21T02:44:45.772Z,0.25
2022-09-21T02:47:46.885Z,0.1
2022-09-21T02:50:45.745Z,0.2
2022-09-21T02:53:45.775Z,0.25
2022-09-21T02:56:45.766Z,0.2
2022-09-21T02:59:45.741Z,0
2022-09-21T03:02:45.893Z,0
2022-09-21T03:05:45.795Z,0
2022-09-21T03:08:45.825Z,0
2022-09-21T03:11:45.775Z,0
2022-09-21T03:14:45.826Z,0
2022-09-21T03:17:45.766Z,0
2022-09-21T03:20:45.798Z,0
2022-09-21T03:23:45.788Z,0
2022-09-21T03:26:45.770Z,0
2022-09-21T03:29:45.790Z,0
2022-09-21T03:32:45.786Z,0
2022-09-21T03:35:45.806Z,0
2022-09-21T03:38:45.767Z,0
2022-09-21T03:41:45.789Z,0
2022-09-21T03:44:45.820Z,0
2022-09-21T03:47:45.806Z,0
2022-09-21T03:50:45.785Z,0
2022-09-21T03:53:45.872Z,0
2022-09-21T03:56:45.828Z,0
2022-09-21T03:59:45.897Z,0.05
2022-09-21T04:02:46.031Z,0
2022-09-21T04:05:45.990Z,0.1
2022-09-21T04:08:45.833Z,0
2022-09-21T04:11:45.907Z,0
2022-09-21T04:14:45.833Z,0
2022-09-21T04:17:45.798Z,0
2022-09-21T04:20:45.792Z,0.05
2022-09-21T04:23:45.855Z,0
2022-09-21T04:26:45.806Z,0
2022-09-21T04:29:45.849Z,0
2022-09-21T04:32:45.902Z,0
2022-09-21T04:35:45.868Z,0
2022-09-21T04:38:45.854Z,0
2022-09-21T04:41:45.823Z,0
2022-09-21T04:44:45.861Z,0
2022-09-21T04:47:45.803Z,0
2022-09-21T04:50:45.868Z,0.2
2022-09-21T04:53:45.838Z,0
2022-09-21T04:56:45.963Z,0
2022-09-21T04:59:45.885Z,0
2022-09-21T05:02:45.831Z,0
2022-09-21T05:05:45.877Z,0
2022-09-21T05:08:45.852Z,0
2022-09-21T05:11:45.888Z,0
2022-09-21T05:14:45.894Z,0
2022-09-21T05:17:45.857Z,0
2022-09-21T05:20:45.875Z,0
2022-09-21T05:23:45.866Z,0
2022-09-21T05:26:45.842Z,0
2022-09-21T05:29:45.924Z,0
2022-09-21T05:32:45.926Z,0
2022-09-21T05:35:45.896Z,0
2022-09-21T05:38:45.901Z,0
2022-09-21T05:41:45.857Z,0
2022-09-21T05:44:45.912Z,0
2022-09-21T05:47:45.913Z,0
2022-09-21T05:50:45.874Z,0
2022-09-21T05:53:45.921Z,0.05
2022-09-21T05:56:45.901Z,0
2022-09-21T05:59:45.966Z,0
2022-09-21T06:02:46.100Z,0
2022-09-21T06:05:45.889Z,0.05
2022-09-21T06:08:45.956Z,0.05
2022-09-21T06:11:45.945Z,0
2022-09-21T06:14:45.922Z,0.05
2022-09-21T06:17:45.947Z,0.15
2022-09-21T06:20:45.953Z,0
2022-09-21T06:23:45.917Z,0.05
2022-09-21T06:26:45.926Z,0
2022-09-21T06:29:45.957Z,0
2022-09-21T06:32:45.896Z,0
2022-09-21T06:35:45.927Z,0
2022-09-21T06:38:45.904Z,0
2022-09-21T06:41:45.908Z,0.25
2022-09-21T06:44:45.896Z,0.1
2022-09-21T06:47:45.946Z,0
2022-09-21T06:50:46.006Z,0
2022-09-21T06:53:45.966Z,0.25
2022-09-21T06:56:45.922Z,0.2
2022-09-21T06:59:46.018Z,0.2
2022-09-21T07:02:45.933Z,0.2
2022-09-21T07:05:45.971Z,0.3
2022-09-21T07:11:45.942Z,0.5
2022-09-21T07:14:45.973Z,0.65
2022-09-21T07:17:52.170Z,0.5
2022-09-21T07:20:45.962Z,0.85
2022-09-21T07:23:45.967Z,0.6
2022-09-21T07:26:46.052Z,0.5
2022-09-21T07:29:45.978Z,0.55
2022-09-21T07:32:45.982Z,0.35
2022-09-21T07:35:46.013Z,0.9
2022-09-21T07:38:45.976Z,0.85
2022-09-21T07:41:46.146Z,0.55
2022-09-21T07:44:46.089Z,0.55
2022-09-21T07:47:46.017Z,0.85
2022-09-21T07:50:46.043Z,0.7
2022-09-21T07:53:46.023Z,0.85
2022-09-21T07:56:46.016Z,0.8
2022-09-21T07:59:45.966Z,1.05
2022-09-21T08:02:48.693Z,0.8
2022-09-21T08:05:46.022Z,0.85
2022-09-21T08:08:46.026Z,1
2022-09-21T08:11:46.043Z,0.9
2022-09-21T08:14:45.972Z,1
2022-09-21T08:17:46.057Z,1.15
2022-09-21T08:20:46.051Z,1.1
2022-09-21T08:23:46.048Z,1.3
2022-09-21T08:26:46.047Z,1.35
2022-09-21T08:29:45.994Z,1
2022-09-21T08:32:52.032Z,0.85
2022-09-21T08:35:45.981Z,0.8
2022-09-21T08:38:46.077Z,1.2
2022-09-21T08:41:46.010Z,1.2
2022-09-21T08:44:46.037Z,1.5
2022-09-21T08:47:46.037Z,1.05
2022-09-21T08:50:46.035Z,0.75
2022-09-21T08:53:46.116Z,1.3
2022-09-21T08:57:04.752Z,1.15
2022-09-21T08:59:46.052Z,1.05
2022-09-21T09:02:46.062Z,1.25
2022-09-21T09:05:46.033Z,1.3
2022-09-21T09:08:46.073Z,1.5
2022-09-21T09:11:46.031Z,1.65
2022-09-21T09:14:46.141Z,1.1
2022-09-21T09:17:46.061Z,1
2022-09-21T09:20:46.059Z,0.95
2022-09-21T09:23:46.068Z,0.85
2022-09-21T09:26:46.089Z,0.95
2022-09-21T09:29:46.063Z,1.3
2022-09-21T09:32:46.092Z,1.45
2022-09-21T09:35:46.064Z,1.8
2022-09-21T09:38:46.194Z,0.5
2022-09-21T09:41:46.123Z,1.6
2022-09-21T09:44:46.148Z,2
2022-09-21T09:47:48.657Z,1.1
2022-09-21T09:50:46.131Z,1.65
2022-09-21T09:53:46.152Z,1.5
2022-09-21T09:56:46.141Z,1.15
2022-09-21T09:59:48.458Z,1.45
2022-09-21T10:02:46.073Z,1.45
2022-09-21T10:05:46.075Z,1.55
2022-09-21T10:08:46.107Z,1.35
2022-09-21T10:11:46.152Z,1.5
2022-09-21T10:14:46.122Z,1.55
2022-09-21T10:17:46.102Z,1.35
2022-09-21T10:20:46.123Z,1.3
2022-09-21T10:23:46.127Z,1.05
2022-09-21T10:26:46.152Z,1.5
2022-09-21T10:29:46.128Z,1.3
2022-09-21T10:32:46.133Z,1.05
2022-09-21T10:35:46.158Z,1
2022-09-21T10:38:46.124Z,1.9
2022-09-21T10:41:46.110Z,1.4
2022-09-21T10:44:46.166Z,1.4
2022-09-21T10:47:46.162Z,1.45
2022-09-21T10:50:46.136Z,1.25
2022-09-21T10:53:46.157Z,1.55
2022-09-21T10:56:46.106Z,1.35
2022-09-21T10:59:46.172Z,1.5
2022-09-21T11:02:46.315Z,2.3
2022-09-21T11:05:46.126Z,1.05
2022-09-21T11:08:46.186Z,1.15
2022-09-21T11:11:46.198Z,1.1
2022-09-21T11:14:46.168Z,1.4
2022-09-21T11:17:47.266Z,2.65
2022-09-21T11:20:46.177Z,1.4
2022-09-21T11:23:46.206Z,1.35
2022-09-21T11:26:46.178Z,1.2
2022-09-21T11:29:46.165Z,1.45
2022-09-21T11:32:46.222Z,1.65
2022-09-21T11:35:46.741Z,1.75
2022-09-21T11:38:46.176Z,1.75
2022-09-21T11:41:46.173Z,0.95
2022-09-21T11:44:46.202Z,1.4
2022-09-21T11:47:46.218Z,1.65
2022-09-21T11:50:46.290Z,1.1
2022-09-21T11:53:46.254Z,1.55
2022-09-21T11:56:46.193Z,2.4
2022-09-21T11:59:46.227Z,1.9
2022-09-21T12:02:46.542Z,1.1
2022-09-21T12:05:46.217Z,1.35
2022-09-21T12:08:47.069Z,1
2022-09-21T12:11:46.241Z,0.95
2022-09-21T12:14:46.231Z,1.15
2022-09-21T12:17:46.242Z,1.05
2022-09-21T12:20:46.248Z,1.35
2022-09-21T12:23:46.269Z,1.45
2022-09-21T12:26:46.328Z,1.2
2022-09-21T12:29:46.236Z,0.6
2022-09-21T12:32:46.251Z,1.5
2022-09-21T12:35:46.283Z,1.15
2022-09-21T12:38:46.223Z,1.3
2022-09-21T12:41:46.284Z,1.5
2022-09-21T12:44:46.923Z,1.2
2022-09-21T12:47:46.228Z,1.6
2022-09-21T12:50:46.251Z,1.45
2022-09-21T12:53:51.389Z,1.35
2022-09-21T12:56:46.238Z,1.25
2022-09-21T12:59:46.273Z,0.95
2022-09-21T13:02:50.122Z,0.7
2022-09-21T13:05:46.264Z,1.4
2022-09-21T13:08:46.373Z,1.85
2022-09-21T13:11:46.316Z,1.75
2022-09-21T13:14:46.259Z,1.45
2022-09-21T13:17:46.299Z,1.7
2022-09-21T13:20:46.339Z,1.45
2022-09-21T13:23:46.310Z,1.3
2022-09-21T13:26:46.336Z,1.85
2022-09-21T13:29:46.279Z,1.2
2022-09-21T13:32:46.278Z,1.05
2022-09-21T13:35:46.254Z,0.75
2022-09-21T13:38:46.279Z,0.55
2022-09-21T13:42:02.699Z,0.5
2022-09-21T13:44:46.304Z,1.25
2022-09-21T13:47:46.352Z,1.05
2022-09-21T13:50:46.295Z,1.55
2022-09-21T13:53:46.328Z,1.1
2022-09-21T13:56:46.288Z,1.3
2022-09-21T13:59:46.266Z,1.15
2022-09-21T14:02:46.507Z,0.8
2022-09-21T14:05:46.330Z,0.8
2022-09-21T14:08:50.353Z,0.8
2022-09-21T14:11:46.287Z,0.95
2022-09-21T14:14:46.343Z,0.9
2022-09-21T14:17:46.339Z,0.45
2022-09-21T14:20:46.383Z,0.7
2022-09-21T14:23:46.302Z,1.15
2022-09-21T14:26:46.363Z,1.25
2022-09-21T14:29:46.338Z,1.15
2022-09-21T14:32:46.340Z,1.3
2022-09-21T14:35:46.343Z,0.9
2022-09-21T14:38:46.366Z,0.85
2022-09-21T14:41:46.336Z,0.8
2022-09-21T14:44:46.348Z,1.65
2022-09-21T14:47:46.358Z,0.65
2022-09-21T14:50:46.374Z,1.55
2022-09-21T14:53:46.364Z,1.75
2022-09-21T14:56:46.367Z,1.6
2022-09-21T14:59:46.418Z,1.75
2022-09-21T15:02:46.357Z,1.45
2022-09-21T15:05:46.456Z,0.95
2022-09-21T15:08:46.383Z,0.8
2022-09-21T15:11:46.400Z,0.85
2022-09-21T15:14:46.389Z,0.65
2022-09-21T15:17:46.399Z,0.75
2022-09-21T15:20:46.402Z,1.05
2022-09-21T15:23:46.387Z,1.4
2022-09-21T15:26:46.365Z,0.9
2022-09-21T15:29:46.427Z,1.25
2022-09-21T15:32:46.374Z,1
2022-09-21T15:35:46.433Z,1.45
2022-09-21T15:38:46.392Z,1.5
2022-09-21T15:41:46.459Z,0.95
2022-09-21T15:44:52.440Z,1.35
2022-09-21T15:47:46.438Z,1.35
2022-09-21T15:50:46.359Z,0.95
2022-09-21T15:53:46.417Z,1.1
2022-09-21T15:56:46.396Z,1.05
2022-09-21T15:59:49.143Z,1.5
2022-09-21T16:02:46.470Z,0.95
2022-09-21T16:05:46.458Z,1
2022-09-21T16:08:46.429Z,0.6
2022-09-21T16:11:46.414Z,1.6
2022-09-21T16:14:46.452Z,1.55
2022-09-21T16:17:46.493Z,0.7
2022-09-21T16:20:46.438Z,1
2022-09-21T16:23:46.444Z,1
2022-09-21T16:26:46.394Z,1.25
2022-09-21T16:29:46.475Z,1.3
2022-09-21T16:32:46.523Z,1
2022-09-21T16:35:46.539Z,0.95
2022-09-21T16:38:46.444Z,0.85
2022-09-21T16:41:46.465Z,0.9
2022-09-21T16:44:46.444Z,0.5
2022-09-21T16:47:47.574Z,0.65
2022-09-21T16:50:46.526Z,0.45
2022-09-21T16:53:46.438Z,0.45
2022-09-21T16:56:46.505Z,0.5
2022-09-21T16:59:48.960Z,0.4
2022-09-21T17:02:46.517Z,0.65
2022-09-21T17:05:46.532Z,0.4
2022-09-21T17:08:46.539Z,0.4
2022-09-21T17:11:46.571Z,0.3
2022-09-21T17:14:48.250Z,0.3
2022-09-21T17:17:46.571Z,0.5
2022-09-21T17:20:46.499Z,0.35
2022-09-21T17:23:46.510Z,0.4
2022-09-21T17:26:46.547Z,0.35
2022-09-21T17:29:46.526Z,1
2022-09-21T17:32:46.484Z,0.6
2022-09-21T17:35:46.525Z,0.5
2022-09-21T17:38:46.524Z,0.4
2022-09-21T17:41:46.489Z,0.3
2022-09-21T17:44:46.543Z,0.25
2022-09-21T17:47:46.541Z,0.5
2022-09-21T17:50:46.525Z,0.6
2022-09-21T17:53:46.573Z,0.35
2022-09-21T17:56:46.534Z,0.45
2022-09-21T17:59:46.560Z,0.3
2022-09-21T18:02:46.707Z,0.35
2022-09-21T18:05:46.569Z,0.5
2022-09-21T18:08:46.722Z,0.55
2022-09-21T18:11:46.529Z,0.45
2022-09-21T18:14:46.551Z,0.45
2022-09-21T18:17:46.530Z,0.35
2022-09-21T18:20:46.682Z,0.3
2022-09-21T18:23:46.623Z,0.35
2022-09-21T18:26:46.653Z,0.6
2022-09-21T18:29:46.615Z,0.3
2022-09-21T18:32:46.538Z,0.35
2022-09-21T18:35:46.590Z,0.4
2022-09-21T18:38:46.578Z,0.35
2022-09-21T18:41:46.567Z,0.5
2022-09-21T18:44:46.662Z,0.4
2022-09-21T18:47:46.535Z,0.15
2022-09-21T18:50:46.635Z,0.3
2022-09-21T18:53:46.586Z,0.4
2022-09-21T18:56:46.595Z,0.35
2022-09-21T18:59:46.525Z,0.2
2022-09-21T19:03:12.546Z,0.3
2022-09-21T19:05:46.590Z,0.4
2022-09-21T19:08:46.589Z,0.65
2022-09-21T19:11:46.556Z,0.4
2022-09-21T19:14:46.632Z,0.3
2022-09-21T19:17:46.573Z,0.25
2022-09-21T19:20:46.578Z,0.45
2022-09-21T19:23:46.615Z,0.3
2022-09-21T19:26:46.555Z,0.25
2022-09-21T19:29:46.585Z,0.2
2022-09-21T19:32:46.610Z,0.3
2022-09-21T19:35:46.625Z,0.15
2022-09-21T19:38:46.615Z,0
2022-09-21T19:41:46.565Z,0.2
2022-09-21T19:44:46.564Z,0.25
2022-09-21T19:47:46.558Z,0
2022-09-21T19:50:46.672Z,0
2022-09-21T19:53:46.665Z,0
2022-09-21T19:56:46.575Z,0
2022-09-21T19:59:46.597Z,0
2022-09-21T20:02:46.900Z,0
2022-09-21T20:05:46.640Z,0
2022-09-21T20:08:46.585Z,0
2022-09-21T20:11:46.668Z,0
2022-09-21T20:14:46.668Z,0.15
2022-09-21T20:17:46.639Z,0.25
2022-09-21T20:20:46.622Z,0.3
2022-09-21T20:23:52.333Z,0.3
2022-09-21T20:26:46.640Z,0.2
2022-09-21T20:29:47.853Z,0.15
2022-09-21T20:32:46.697Z,0.15
2022-09-21T20:35:46.685Z,0
2022-09-21T20:38:46.640Z,0
2022-09-21T20:41:46.668Z,0
2022-09-21T20:44:46.688Z,0
2022-09-21T20:47:46.618Z,0.25
2022-09-21T20:50:46.718Z,0.4
2022-09-21T20:53:46.671Z,0.5
2022-09-21T20:56:46.690Z,0.35
2022-09-21T20:59:46.690Z,0.3
2022-09-21T21:02:46.691Z,0.25
2022-09-21T21:05:46.662Z,0.3
2022-09-21T21:08:46.676Z,0
2022-09-21T21:11:46.669Z,0
2022-09-21T21:14:46.619Z,0
2022-09-21T21:17:46.649Z,0
2022-09-21T21:20:46.663Z,0
2022-09-21T21:23:46.700Z,0
2022-09-21T21:27:01.601Z,0.25
2022-09-21T21:29:46.688Z,0.2
2022-09-21T21:32:46.643Z,0.2
2022-09-21T21:35:46.664Z,0
2022-09-21T21:38:46.655Z,0
2022-09-21T21:41:46.698Z,0.1
2022-09-21T21:44:46.714Z,0
2022-09-21T21:47:46.728Z,0
2022-09-21T21:50:46.743Z,0.25
2022-09-21T21:53:46.719Z,0.25
2022-09-21T21:56:46.836Z,0.25
2022-09-21T21:59:46.778Z,0.55
2022-09-21T22:02:46.778Z,0.6
2022-09-21T22:05:46.699Z,0.45
2022-09-21T22:08:46.664Z,0.45
2022-09-21T22:11:46.730Z,0.25
2022-09-21T22:14:46.745Z,0.5
2022-09-21T22:17:46.736Z,0.3
2022-09-21T22:20:46.713Z,0.5
2022-09-21T22:23:46.703Z,0.55
2022-09-21T22:26:46.745Z,0.25
2022-09-21T22:29:46.735Z,0.45
2022-09-21T22:32:46.725Z,0.2
2022-09-21T22:35:46.756Z,0.15
2022-09-21T22:38:46.723Z,0.5
2022-09-21T22:41:46.713Z,0.25
2022-09-21T22:44:46.718Z,0.25
2022-09-21T22:47:46.731Z,0.3
2022-09-21T22:50:46.731Z,0.15
2022-09-21T22:53:46.771Z,0.2
2022-09-21T22:56:46.750Z,0.35
2022-09-21T22:59:46.789Z,0.25
2022-09-21T23:02:46.729Z,0.45
2022-09-21T23:05:46.749Z,0.3
2022-09-21T23:08:46.759Z,0.3
2022-09-21T23:11:46.768Z,0.3
2022-09-21T23:14:46.824Z,0.15
2022-09-21T23:17:46.783Z,0.4
2022-09-21T23:20:46.789Z,0.4
2022-09-21T23:23:46.779Z,0.4
2022-09-21T23:26:46.789Z,0.4
2022-09-21T23:29:46.826Z,0.3
2022-09-21T23:32:46.773Z,0.25
2022-09-21T23:35:46.789Z,0.35
2022-09-21T23:38:46.794Z,0.25
2022-09-21T23:41:46.789Z,0.2
2022-09-21T23:44:46.755Z,0.15
2022-09-21T23:47:46.816Z,0
2022-09-21T23:50:46.848Z,0
2022-09-21T23:53:46.783Z,0.25
2022-09-21T23:56:46.798Z,0.35
2022-09-21T23:59:46.784Z,0.3
